Hovedside
METAR-TAF:

METAR-TAF

Lufthavner :

Tartu lufthavn

Tartu, Estland

breddegrad: 58-18N, lengdegrad: 026-44E, høyde over havet: 59 m

Gjeldene værobservasjon

Denne rapporten ble laget for 1 time og 5 minutter siden, klokken 09:50 UTC
Vind 9 kt fra Sør-sørvest
Temperatur 22°C
Luftfuktighet 57%
Trykk 1013 hPa
Sikt 10 km eller mer
ingen skyer under 1500 m og ingen bygeskyer

METAR: EETU 210950Z 21009KT CAVOK 22/13 Q1013

Tid: 13:55 (10:55 UTC)

Varsel

Denne rapporten ble laget for 14 timer og 55 minutter siden, klokken 20:00 UTC
Varsel gyldig fra 20. klokken 21 UTC til 21. klokken 03 UTC
Vind 10 kt fra Sørvest
Sikt 10 km eller mer
Spredte skyer i en høyde av 2000 ft
Sannsynlighet 30% :
Midlertidig
fra 20. klokken 23 UTC til 21. klokken 03 UTC
Brutte skyer i en høyde av 1000 ft

TAF: EETU 202000Z 2021/2103 23010KT 9999 SCT020 PROB30 TEMPO 2023/2103 BKN010

Værobservasjoner og værvarsel for over 4000 flyplasser (METAR- og TAF-rapporter).

Tilgjengelige stasjoner er representert av de røde og gule prikkene på kartet.

Hold musepekeren over prikken for å se navnet på stasjonen.

Klikk så for å se værobservasjoner og -varsler.

For å forandre kartet kan du klikke på den grønne knappen med svart kryss for å zoome inn, på den grønne knappen med strek for å zoome ut, eller på de grønne pilene for å se tilstøtende kart.


METAR-TAF: